KMML

Southwest Minnesota Regional Marshall/Ryan Field Airport

Marshall, Minnesota, USA
METAR KMML 170156Z AUTO 06003KT 9SM SCT100 BKN120 M02/M03 A3007 RMK AO2 SLP201 T10171033 FZRANO
Observed Flight Rules
Dec-17 @ 01:56 UTC (29 minutes ago) Visual Flight Rules
Wind Visibility Clouds
60° at 3 knots 9 miles
  • Scattered at 10,000' AGL
  • Broken at 12,000' AGL
Temperatures Readings
Current -2°C / 28°F
Dewpoint -3°C / 27°F
Humidity 93%
Altimeter 30.07" Hg
Pressure 1020.1 hPa
Elevation 359
METAR KMML 170156Z AUTO 06003KT 9SM SCT100 BKN120 M02/M03 A3007 RMK AO2 SLP201 T10171033 FZRANO
Observed Flight Rules
Dec-17 @ 01:56 UTC
(29 minutes ago)
VFR
Wind Visibility
60° at 3 knots 9 miles
Clouds
  • Scattered at 10,000' AGL
  • Broken at 12,000' AGL
Temperature Dewpoint
-2°C / 28°F -3°C / 27°F
Humidity Altimeter Pressure
93% 30.07" Hg 1020.1 hPa